Raytown, Missouri
Current Conditions -  °F | °C
As of 4:25 AM on Thursday 23 Oct 2014 (Local Time) from KLXT Reporting Station
Overcast Overcast  
Wind Chill: 58°   Ceiling: 2400
Heat Index: 58°   Visibility: 10mi
Dew Point: 50°   Wind: 7mph
Humidity: 75%   Direction: 200°SSW
Pressure: 30.12"   Gusts: NA
Location:  39.01°N, 94.46°W
Report Text: KLXT 230925Z AUTO 20006KT 10SM BKN024 BKN043 OVC075 14/10 A3012 RMK AO2 T01440100
Loading
Personal Weather Stations






























Interactive Weather Map
Tropical Storm Tracking
New forecast layout! Learn more

10-Day Weather Forecast

Advertisements
Track Severe Weather on mobile